LNG Dream — C6VO5 — position and weather

sailwx.info

Track history (hours):
 
Tides and Currents Weather Stations Pressure Air Temp Water Temp Dewpoint Dewpoint Depression Visibility Wind Speed Wind Dir Waves Ship Positions

LNG Dream

Last reported at 2016-Apr-19 18:18 UTC. Time now 2016-May-06 20:35 UTC.
Position S 16°14' E 119°13'.
Warning: this ship's position is 17 days out of date.

Length 289.6 m; beam 49 m.

Type: Ship (hazmat cat A). MMSI: 309065000.

Date/timePositionNaut miles runAvg speedWind from/ knotsBaromVisibWave heightAir tempDewpointWater temp
2016-Apr-19 18:18S 16°14' E 119°13'7118.9
2016-Apr-19 14:34S 17°16' E 118°36'1919.2
2016-Apr-19 13:33S 17°32' E 118°26'10219.0
2016-Apr-19 08:10S 19°01' E 117°33'1318.8
2016-Apr-19 07:30S 19°12' E 117°27'1819.0
2016-Apr-19 06:33S 19°28' E 117°17'5717.7
2016-Apr-19 03:20S 20°16' E 116°46'8 9.5
2016-Apr-19 02:30S 20°24' E 116°44'1010.1
2016-Apr-19 01:32S 20°34' E 116°44'1 0.1
2016-Apr-18 00:33S 20°35' E 116°46'10 9.5
2016-Apr-17 23:31S 20°25' E 116°44'6 6.5
2016-Apr-17 22:32S 20°19' E 116°44'9 9.0
2016-Apr-17 21:30S 20°11' E 116°49'1314.2
2016-Apr-17 20:33S 19°59' E 116°57'1414.1
2016-Apr-17 19:32S 19°47' E 117°05'1313.1
2016-Apr-17 18:33S 19°36' E 117°12'1414.2
2016-Apr-17 17:33S 19°24' E 117°20'1414.3
2016-Apr-17 16:33S 19°12' E 117°29'1313.2
2016-Apr-17 15:32S 18°60' E 117°33'1514.8
2016-Apr-17 14:33S 18°47' E 117°40'9114.7
2016-Apr-17 08:21S 17°28' E 118°28'1215.3
2016-Apr-17 07:33S 17°17' E 118°35'1515.1
2016-Apr-17 06:33S 17°04' E 118°43'5015.1
2016-Apr-17 03:14S 16°21' E 119°09'6914.6
2016-Apr-16 22:30S 15°21' E 119°44'1413.5
2016-Apr-16 21:28S 15°09' E 119°52'  
Track history (hours):
 
Tides and Currents Weather Stations Pressure Air Temp Water Temp Dewpoint Dewpoint Depression Visibility Wind Speed Wind Dir Waves Ship Positions

LNG Dream

Last reported at 2016-Apr-19 18:18 UTC. Time now 2016-May-06 20:35 UTC.
Position S 16°14' E 119°13'.
Warning: this ship's position is 17 days out of date.

Length 289.6 m; beam 49 m.

Type: Ship (hazmat cat A). MMSI: 309065000.

Date/timePositionNaut miles runAvg speedWind from/ knotsBaromVisibWave heightAir tempDewpointWater temp
2016-Apr-19 18:18S 16°14' E 119°13'7118.9
2016-Apr-19 14:34S 17°16' E 118°36'1919.2
2016-Apr-19 13:33S 17°32' E 118°26'10219.0
2016-Apr-19 08:10S 19°01' E 117°33'1318.8
2016-Apr-19 07:30S 19°12' E 117°27'1819.0
2016-Apr-19 06:33S 19°28' E 117°17'5717.7
2016-Apr-19 03:20S 20°16' E 116°46'8 9.5
2016-Apr-19 02:30S 20°24' E 116°44'1010.1
2016-Apr-19 01:32S 20°34' E 116°44'1 0.1
2016-Apr-18 00:33S 20°35' E 116°46'10 9.5
2016-Apr-17 23:31S 20°25' E 116°44'6 6.5
2016-Apr-17 22:32S 20°19' E 116°44'9 9.0
2016-Apr-17 21:30S 20°11' E 116°49'1314.2
2016-Apr-17 20:33S 19°59' E 116°57'1414.1
2016-Apr-17 19:32S 19°47' E 117°05'1313.1
2016-Apr-17 18:33S 19°36' E 117°12'1414.2
2016-Apr-17 17:33S 19°24' E 117°20'1414.3
2016-Apr-17 16:33S 19°12' E 117°29'1313.2
2016-Apr-17 15:32S 18°60' E 117°33'1514.8
2016-Apr-17 14:33S 18°47' E 117°40'9114.7
2016-Apr-17 08:21S 17°28' E 118°28'1215.3
2016-Apr-17 07:33S 17°17' E 118°35'1515.1
2016-Apr-17 06:33S 17°04' E 118°43'5015.1
2016-Apr-17 03:14S 16°21' E 119°09'6914.6
2016-Apr-16 22:30S 15°21' E 119°44'1413.5
2016-Apr-16 21:28S 15°09' E 119°52'  

Dump ship's entire track history